sensor_id;sensor_type;location;lat;lon;timestamp;pressure;altitude;pressure_sealevel;temperature;humidity
44453;BME280;30155;52.164;21.236;2023-06-19T00:09:09;100461.16;;;13.89;80.38
44453;BME280;30155;52.164;21.236;2023-06-19T00:15:17;100476.50;;;13.77;80.72
44453;BME280;30155;52.164;21.236;2023-06-19T00:21:06;100473.71;;;13.77;81.08
44453;BME280;30155;52.164;21.236;2023-06-19T00:26:47;100470.92;;;13.71;80.96
44453;BME280;30155;52.164;21.236;2023-06-19T00:32:34;100482.40;;;13.60;80.59
44453;BME280;30155;52.164;21.236;2023-06-19T00:38:00;100481.72;;;13.55;80.94
44453;BME280;30155;52.164;21.236;2023-06-19T00:43:27;100490.92;;;13.50;80.88
44453;BME280;30155;52.164;21.236;2023-06-19T00:48:47;100482.73;;;13.45;80.71
44453;BME280;30155;52.164;21.236;2023-06-19T00:54:20;100485.00;;;13.36;80.58
44453;BME280;30155;52.164;21.236;2023-06-19T01:00:31;100482.87;;;13.29;80.49
44453;BME280;30155;52.164;21.236;2023-06-19T01:11:42;100483.16;;;13.11;80.30
44453;BME280;30155;52.164;21.236;2023-06-19T01:17:54;100478.09;;;13.06;80.60
44453;BME280;30155;52.164;21.236;2023-06-19T01:23:34;100477.71;;;12.97;80.54
44453;BME280;30155;52.164;21.236;2023-06-19T01:29:38;100479.60;;;12.89;80.53
44453;BME280;30155;52.164;21.236;2023-06-19T01:35:07;100486.02;;;12.83;80.67
44453;BME280;30155;52.164;21.236;2023-06-19T01:41:09;100488.10;;;12.82;80.79
44453;BME280;30155;52.164;21.236;2023-06-19T01:47:12;100490.18;;;12.81;81.14
44453;BME280;30155;52.164;21.236;2023-06-19T01:59:19;100485.48;;;12.75;80.95
44453;BME280;30155;52.164;21.236;2023-06-19T02:10:35;100481.25;;;12.70;80.89
44453;BME280;30155;52.164;21.236;2023-06-19T02:16:44;100479.67;;;12.59;80.58
44453;BME280;30155;52.164;21.236;2023-06-19T02:22:07;100481.35;;;12.53;80.69
44453;BME280;30155;52.164;21.236;2023-06-19T02:27:43;100484.81;;;12.49;80.79
44453;BME280;30155;52.164;21.236;2023-06-19T02:33:27;100485.31;;;12.45;80.59
44453;BME280;30155;52.164;21.236;2023-06-19T02:39:25;100479.39;;;12.44;81.12
44453;BME280;30155;52.164;21.236;2023-06-19T02:45:06;100485.48;;;12.42;80.74
44453;BME280;30155;52.164;21.236;2023-06-19T02:50:34;100488.58;;;12.38;80.78
44453;BME280;30155;52.164;21.236;2023-06-19T02:56:37;100491.35;;;12.37;80.68
44453;BME280;30155;52.164;21.236;2023-06-19T03:02:40;100495.17;;;12.35;80.55
44453;BME280;30155;52.164;21.236;2023-06-19T03:21:07;100501.58;;;12.63;80.60
44453;BME280;30155;52.164;21.236;2023-06-19T03:26:56;100506.48;;;13.15;79.98
44453;BME280;30155;52.164;21.236;2023-06-19T03:32:31;100506.98;;;13.72;79.14
44453;BME280;30155;52.164;21.236;2023-06-19T03:38:15;100507.63;;;14.44;77.87
44453;BME280;30155;52.164;21.236;2023-06-19T03:44:05;100504.96;;;14.63;76.87
44453;BME280;30155;52.164;21.236;2023-06-19T03:49:57;100501.52;;;14.43;76.54
44453;BME280;30155;52.164;21.236;2023-06-19T03:55:58;100496.70;;;14.01;76.95
44453;BME280;30155;52.164;21.236;2023-06-19T04:01:36;100493.05;;;13.88;77.44
44453;BME280;30155;52.164;21.236;2023-06-19T04:13:22;100481.89;;;13.53;78.25
44453;BME280;30155;52.164;21.236;2023-06-19T04:19:05;100487.27;;;13.42;78.59
44453;BME280;30155;52.164;21.236;2023-06-19T04:24:57;100501.54;;;13.38;79.39
44453;BME280;30155;52.164;21.236;2023-06-19T04:30:59;100505.55;;;13.43;80.26
44453;BME280;30155;52.164;21.236;2023-06-19T04:35:56;100493.18;;;13.51;80.73
44453;BME280;30155;52.164;21.236;2023-06-19T04:40:48;100492.16;;;13.59;81.01
44453;BME280;30155;52.164;21.236;2023-06-19T04:45:40;100491.11;;;13.65;81.30
44453;BME280;30155;52.164;21.236;2023-06-19T04:50:37;100495.13;;;13.79;81.79
44453;BME280;30155;52.164;21.236;2023-06-19T04:55:40;100500.55;;;13.97;82.19
44453;BME280;30155;52.164;21.236;2023-06-19T05:00:48;100501.56;;;14.15;82.65
44453;BME280;30155;52.164;21.236;2023-06-19T05:05:52;100503.98;;;14.37;83.25
44453;BME280;30155;52.164;21.236;2023-06-19T05:11:09;100509.70;;;14.59;83.26
44453;BME280;30155;52.164;21.236;2023-06-19T05:16:30;100507.92;;;14.75;83.43
44453;BME280;30155;52.164;21.236;2023-06-19T05:21:42;100503.61;;;15.02;83.38
44453;BME280;30155;52.164;21.236;2023-06-19T05:26:40;100503.99;;;15.29;83.46
44453;BME280;30155;52.164;21.236;2023-06-19T05:31:34;100499.48;;;15.52;83.21
44453;BME280;30155;52.164;21.236;2023-06-19T05:42:53;100510.73;;;17.24;79.73
44453;BME280;30155;52.164;21.236;2023-06-19T05:48:20;100514.99;;;17.56;79.89
44453;BME280;30155;52.164;21.236;2023-06-19T05:53:13;100517.37;;;17.96;79.11
44453;BME280;30155;52.164;21.236;2023-06-19T05:58:06;100516.68;;;18.36;77.83
44453;BME280;30155;52.164;21.236;2023-06-19T06:02:58;100527.80;;;18.23;78.39
44453;BME280;30155;52.164;21.236;2023-06-19T06:07:51;100536.31;;;18.18;77.87
44453;BME280;30155;52.164;21.236;2023-06-19T06:12:42;100538.36;;;18.21;78.15
44453;BME280;30155;52.164;21.236;2023-06-19T06:17:34;100540.09;;;18.33;78.07
44453;BME280;30155;52.164;21.236;2023-06-19T06:22:26;100550.89;;;18.37;77.43
44453;BME280;30155;52.164;21.236;2023-06-19T06:27:21;100556.66;;;18.48;77.03
44453;BME280;30155;52.164;21.236;2023-06-19T06:32:15;100566.13;;;19.13;75.44
44453;BME280;30155;52.164;21.236;2023-06-19T06:37:12;100565.61;;;19.54;74.53
44453;BME280;30155;52.164;21.236;2023-06-19T06:42:16;100567.86;;;19.79;73.84
44453;BME280;30155;52.164;21.236;2023-06-19T06:47:11;100574.52;;;19.96;73.53
44453;BME280;30155;52.164;21.236;2023-06-19T06:52:05;100570.00;;;20.08;72.35
44453;BME280;30155;52.164;21.236;2023-06-19T06:57:05;100563.22;;;21.79;68.90
44453;BME280;30155;52.164;21.236;2023-06-19T07:02:00;100562.80;;;22.63;68.05
44453;BME280;30155;52.164;21.236;2023-06-19T07:06:57;100559.24;;;22.64;67.40
44453;BME280;30155;52.164;21.236;2023-06-19T07:12:12;100560.90;;;22.96;65.48
44453;BME280;30155;52.164;21.236;2023-06-19T07:17:05;100559.35;;;23.24;64.72
44453;BME280;30155;52.164;21.236;2023-06-19T07:21:59;100559.17;;;23.43;64.13
44453;BME280;30155;52.164;21.236;2023-06-19T07:26:53;100557.14;;;23.81;62.02
44453;BME280;30155;52.164;21.236;2023-06-19T07:31:46;100552.70;;;24.57;60.24
44453;BME280;30155;52.164;21.236;2023-06-19T07:36:56;100551.73;;;25.75;58.62
44453;BME280;30155;52.164;21.236;2023-06-19T07:55:09;100542.70;;;35.13;44.71
44453;BME280;30155;52.164;21.236;2023-06-19T08:00:10;100544.11;;;36.54;42.65
44453;BME280;30155;52.164;21.236;2023-06-19T08:18:56;100545.83;;;35.02;39.88
44453;BME280;30155;52.164;21.236;2023-06-19T08:31:42;100544.14;;;38.65;35.99
44453;BME280;30155;52.164;21.236;2023-06-19T08:38:21;100545.02;;;38.78;34.37
44453;BME280;30155;52.164;21.236;2023-06-19T08:43:35;100542.42;;;37.44;34.91
44453;BME280;30155;52.164;21.236;2023-06-19T08:48:27;100537.27;;;37.95;34.10
44453;BME280;30155;52.164;21.236;2023-06-19T08:53:19;100533.93;;;39.26;32.63
44453;BME280;30155;52.164;21.236;2023-06-19T08:58:11;100536.06;;;39.63;31.38
44453;BME280;30155;52.164;21.236;2023-06-19T09:03:30;100533.70;;;39.44;31.58
44453;BME280;30155;52.164;21.236;2023-06-19T09:36:39;100535.91;;;35.39;33.35
44453;BME280;30155;52.164;21.236;2023-06-19T09:49:29;100539.92;;;37.51;30.36
44453;BME280;30155;52.164;21.236;2023-06-19T09:54:24;100542.00;;;38.22;29.81
44453;BME280;30155;52.164;21.236;2023-06-19T09:59:46;100539.33;;;38.78;28.97
44453;BME280;30155;52.164;21.236;2023-06-19T10:06:01;100543.16;;;39.18;28.71
44453;BME280;30155;52.164;21.236;2023-06-19T10:11:20;100538.29;;;39.49;28.60
44453;BME280;30155;52.164;21.236;2023-06-19T10:23:42;100528.03;;;39.48;28.28
44453;BME280;30155;52.164;21.236;2023-06-19T10:29:39;100526.11;;;39.08;28.37
44453;BME280;30155;52.164;21.236;2023-06-19T10:35:16;100518.48;;;38.45;28.58
44453;BME280;30155;52.164;21.236;2023-06-19T11:01:30;100520.66;;;32.86;33.14
44453;BME280;30155;52.164;21.236;2023-06-19T11:15:08;100521.02;;;31.20;34.23
44453;BME280;30155;52.164;21.236;2023-06-19T11:21:47;100509.86;;;30.60;35.19
44453;BME280;30155;52.164;21.236;2023-06-19T11:27:25;100513.92;;;29.43;35.77
44453;BME280;30155;52.164;21.236;2023-06-19T11:32:21;100505.58;;;29.48;36.34
44453;BME280;30155;52.164;21.236;2023-06-19T11:45:50;100488.56;;;30.55;36.72
44453;BME280;30155;52.164;21.236;2023-06-19T12:05:17;100485.83;;;29.00;37.09
44453;BME280;30155;52.164;21.236;2023-06-19T12:37:35;100463.77;;;28.38;41.13
44453;BME280;30155;52.164;21.236;2023-06-19T12:42:27;100465.42;;;28.92;40.36
44453;BME280;30155;52.164;21.236;2023-06-19T13:00:46;100442.59;;;30.63;37.30
44453;BME280;30155;52.164;21.236;2023-06-19T13:13:35;100440.79;;;31.27;37.14
44453;BME280;30155;52.164;21.236;2023-06-19T13:20:09;100432.59;;;31.44;35.29
44453;BME280;30155;52.164;21.236;2023-06-19T13:26:08;100429.53;;;31.54;35.56
44453;BME280;30155;52.164;21.236;2023-06-19T13:32:14;100428.44;;;31.37;34.58
44453;BME280;30155;52.164;21.236;2023-06-19T13:38:02;100418.40;;;31.21;34.76
44453;BME280;30155;52.164;21.236;2023-06-19T14:11:48;100394.52;;;30.14;34.91
44453;BME280;30155;52.164;21.236;2023-06-19T14:29:59;100394.01;;;30.67;33.89
44453;BME280;30155;52.164;21.236;2023-06-19T14:41:09;100384.29;;;31.19;34.23
44453;BME280;30155;52.164;21.236;2023-06-19T14:46:01;100384.36;;;31.26;33.76
44453;BME280;30155;52.164;21.236;2023-06-19T14:51:00;100384.69;;;31.19;34.04
44453;BME280;30155;52.164;21.236;2023-06-19T15:02:50;100384.77;;;30.91;34.28
44453;BME280;30155;52.164;21.236;2023-06-19T15:07:46;100387.66;;;30.73;34.23
44453;BME280;30155;52.164;21.236;2023-06-19T15:12:49;100388.32;;;30.49;34.01
44453;BME280;30155;52.164;21.236;2023-06-19T15:18:06;100383.95;;;30.19;34.04
44453;BME280;30155;52.164;21.236;2023-06-19T15:23:06;100379.06;;;30.13;34.33
44453;BME280;30155;52.164;21.236;2023-06-19T15:34:30;100377.41;;;29.85;33.98
44453;BME280;30155;52.164;21.236;2023-06-19T15:40:25;100374.71;;;29.66;34.19
44453;BME280;30155;52.164;21.236;2023-06-19T17:32:00;100415.04;;;24.34;46.92
44453;BME280;30155;52.164;21.236;2023-06-19T17:38:33;100424.55;;;24.03;47.99
44453;BME280;30155;52.164;21.236;2023-06-19T18:41:52;100449.89;;;22.64;55.33
44453;BME280;30155;52.164;21.236;2023-06-19T18:47:35;100456.79;;;22.49;56.04
44453;BME280;30155;52.164;21.236;2023-06-19T18:53:13;100464.57;;;22.34;56.72
44453;BME280;30155;52.164;21.236;2023-06-19T18:58:06;100470.20;;;22.20;57.28
44453;BME280;30155;52.164;21.236;2023-06-19T19:02:58;100471.91;;;22.06;57.14
44453;BME280;30155;52.164;21.236;2023-06-19T19:07:52;100480.45;;;21.92;57.74
44453;BME280;30155;52.164;21.236;2023-06-19T19:12:49;100479.48;;;21.80;58.18
44453;BME280;30155;52.164;21.236;2023-06-19T19:17:41;100488.02;;;21.67;59.02
44453;BME280;30155;52.164;21.236;2023-06-19T19:22:34;100491.17;;;21.57;59.48
44453;BME280;30155;52.164;21.236;2023-06-19T19:27:25;100490.06;;;21.41;59.91
44453;BME280;30155;52.164;21.236;2023-06-19T19:32:17;100491.37;;;21.27;60.52
44453;BME280;30155;52.164;21.236;2023-06-19T19:37:11;100492.66;;;21.14;61.00
44453;BME280;30155;52.164;21.236;2023-06-19T19:42:06;100495.13;;;20.96;61.36
44453;BME280;30155;52.164;21.236;2023-06-19T19:47:02;100492.03;;;20.81;61.59
44453;BME280;30155;52.164;21.236;2023-06-19T19:51:58;100493.48;;;20.68;61.60
44453;BME280;30155;52.164;21.236;2023-06-19T19:56:50;100492.99;;;20.52;61.99
44453;BME280;30155;52.164;21.236;2023-06-19T20:01:41;100496.70;;;20.39;62.42
44453;BME280;30155;52.164;21.236;2023-06-19T20:06:34;100504.82;;;20.25;62.61
44453;BME280;30155;52.164;21.236;2023-06-19T20:11:29;100505.85;;;20.12;62.88
44453;BME280;30155;52.164;21.236;2023-06-19T20:16:21;100508.21;;;20.03;63.08
44453;BME280;30155;52.164;21.236;2023-06-19T20:21:18;100506.58;;;19.90;63.22
44453;BME280;30155;52.164;21.236;2023-06-19T20:26:49;100509.34;;;19.78;63.29
44453;BME280;30155;52.164;21.236;2023-06-19T20:32:00;100511.75;;;19.64;63.67
44453;BME280;30155;52.164;21.236;2023-06-19T20:43:35;100514.42;;;19.48;64.33
44453;BME280;30155;52.164;21.236;2023-06-19T20:49:33;100515.67;;;19.24;64.73
44453;BME280;30155;52.164;21.236;2023-06-19T20:55:16;100513.23;;;19.06;65.08
44453;BME280;30155;52.164;21.236;2023-06-19T21:22:01;100516.93;;;18.51;66.30
44453;BME280;30155;52.164;21.236;2023-06-19T21:28:50;100519.63;;;18.39;66.59
44453;BME280;30155;52.164;21.236;2023-06-19T21:48:32;100512.69;;;18.14;67.28
44453;BME280;30155;52.164;21.236;2023-06-19T21:54:42;100519.00;;;18.05;67.51
44453;BME280;30155;52.164;21.236;2023-06-19T22:01:01;100517.61;;;17.93;67.49
44453;BME280;30155;52.164;21.236;2023-06-19T22:59:36;100540.17;;;17.10;69.10
44453;BME280;30155;52.164;21.236;2023-06-19T23:18:47;100535.40;;;16.85;69.58
44453;BME280;30155;52.164;21.236;2023-06-19T23:38:27;100532.23;;;16.53;69.96
44453;BME280;30155;52.164;21.236;2023-06-19T23:45:09;100530.38;;;16.46;70.03
44453;BME280;30155;52.164;21.236;2023-06-19T23:58:01;100537.17;;;16.29;70.27
